createdAt,value
2018-09-02T00:01:02.982Z,3.40
2018-09-02T00:03:30.348Z,3.63
2018-09-02T00:05:57.695Z,4.87
2018-09-02T00:08:25.057Z,3.57
2018-09-02T00:10:52.405Z,4.47
2018-09-02T00:13:19.746Z,3.90
2018-09-02T00:15:47.127Z,3.97
2018-09-02T00:18:14.498Z,3.70
2018-09-02T00:20:41.867Z,4.27
2018-09-02T00:23:09.239Z,4.77
2018-09-02T00:25:36.638Z,3.63
2018-09-02T00:28:04.642Z,3.90
2018-09-02T00:30:31.962Z,6.40
2018-09-02T00:32:59.417Z,3.90
2018-09-02T00:35:26.698Z,4.50
2018-09-02T00:37:54.153Z,4.07
2018-09-02T00:40:21.506Z,4.40
2018-09-02T00:42:48.821Z,4.00
2018-09-02T00:45:16.172Z,3.40
2018-09-02T00:47:43.502Z,3.50
2018-09-02T00:50:10.855Z,4.20
2018-09-02T00:52:38.293Z,4.00
2018-09-02T00:55:05.675Z,3.50
2018-09-02T00:57:33.328Z,3.67
2018-09-02T01:00:00.999Z,4.43
2018-09-02T01:02:28.378Z,3.53
2018-09-02T01:04:55.734Z,3.70
2018-09-02T01:07:23.039Z,3.40
2018-09-02T01:09:50.479Z,3.30
2018-09-02T01:12:17.771Z,3.70
2018-09-02T01:14:45.154Z,3.13
2018-09-02T01:17:12.725Z,3.47
2018-09-02T01:19:40.123Z,3.33
2018-09-02T01:22:07.437Z,3.60
2018-09-02T01:24:35.610Z,3.40
2018-09-02T01:27:02.974Z,3.13
2018-09-02T01:29:30.283Z,3.73
2018-09-02T01:31:57.562Z,3.43
2018-09-02T01:34:24.922Z,3.13
2018-09-02T01:36:52.497Z,3.60
2018-09-02T01:39:19.853Z,3.70
2018-09-02T01:41:47.194Z,3.30
2018-09-02T01:44:14.694Z,3.00
2018-09-02T01:46:41.998Z,3.50
2018-09-02T01:49:09.454Z,3.40
2018-09-02T01:51:36.774Z,2.73
2018-09-02T01:54:04.306Z,3.17
2018-09-02T01:56:31.645Z,3.50
2018-09-02T01:58:58.924Z,2.73
2018-09-02T02:01:26.266Z,3.03
2018-09-02T02:03:53.842Z,3.10
2018-09-02T02:06:21.184Z,3.00
2018-09-02T02:08:48.614Z,3.17
2018-09-02T02:11:16.054Z,2.80
2018-09-02T02:13:43.402Z,2.97
2018-09-02T02:16:10.725Z,3.30
2018-09-02T02:18:38.049Z,3.27
2018-09-02T02:21:05.616Z,3.50
2018-09-02T02:23:33.274Z,3.20
2018-09-02T02:26:00.610Z,2.80
2018-09-02T02:28:27.888Z,3.00
2018-09-02T02:30:55.371Z,3.60
2018-09-02T02:33:22.810Z,2.90
2018-09-02T02:35:50.101Z,4.60
2018-09-02T02:38:17.458Z,3.20
2018-09-02T02:40:44.774Z,4.00
2018-09-02T02:43:12.110Z,3.97
2018-09-02T02:45:39.530Z,3.03
2018-09-02T02:48:06.907Z,3.60
2018-09-02T02:50:34.212Z,2.87
2018-09-02T02:53:04.410Z,3.47
2018-09-02T02:55:33.137Z,2.93
2018-09-02T02:58:00.846Z,3.50
2018-09-02T03:00:28.123Z,3.37
2018-09-02T03:02:55.535Z,3.17
2018-09-02T03:05:23.088Z,3.30
2018-09-02T03:07:50.459Z,3.60
2018-09-02T03:10:18.035Z,3.30
2018-09-02T03:12:45.359Z,4.50
2018-09-02T03:15:12.734Z,3.70
2018-09-02T03:17:40.119Z,3.30
2018-09-02T03:20:07.470Z,3.63
2018-09-02T03:22:34.909Z,4.00
2018-09-02T03:25:02.355Z,3.40
2018-09-02T03:27:29.669Z,3.43
2018-09-02T03:29:56.963Z,3.90
2018-09-02T03:32:24.316Z,3.93
2018-09-02T03:34:51.658Z,3.93
2018-09-02T03:37:18.979Z,3.80
2018-09-02T03:39:46.386Z,3.13
2018-09-02T03:42:13.747Z,3.30
2018-09-02T03:44:41.054Z,3.20
2018-09-02T03:47:08.554Z,4.27
2018-09-02T03:49:36.229Z,3.80
2018-09-02T03:52:03.794Z,3.83
2018-09-02T03:54:31.190Z,3.60
2018-09-02T03:56:58.573Z,4.13
2018-09-02T03:59:27.896Z,4.60
2018-09-02T04:01:55.319Z,4.57
2018-09-02T04:04:22.635Z,3.77
2018-09-02T04:06:50.026Z,3.10
2018-09-02T04:09:17.430Z,3.53
2018-09-02T04:11:44.725Z,4.53
2018-09-02T04:14:12.040Z,4.60
2018-09-02T04:16:39.393Z,4.73
2018-09-02T04:19:06.749Z,4.17
2018-09-02T04:21:34.355Z,4.10
2018-09-02T04:24:02.045Z,4.23
2018-09-02T04:26:29.453Z,3.83
2018-09-02T04:28:56.781Z,4.43
2018-09-02T04:31:24.185Z,5.17
2018-09-02T04:33:51.622Z,3.70
2018-09-02T04:36:18.845Z,4.10
2018-09-02T04:38:46.217Z,5.20
2018-09-02T04:41:13.662Z,4.80
2018-09-02T04:43:41.303Z,5.47
2018-09-02T04:46:08.672Z,4.53
2018-09-02T04:48:35.969Z,4.50
2018-09-02T04:51:03.312Z,5.40
2018-09-02T04:53:30.594Z,4.90
2018-09-02T04:55:57.947Z,5.30
2018-09-02T04:58:25.245Z,6.20
2018-09-02T05:00:52.659Z,5.33
2018-09-02T05:03:19.995Z,5.53
2018-09-02T05:05:47.468Z,5.50
2018-09-02T05:08:14.830Z,4.80
2018-09-02T05:10:42.118Z,6.20
2018-09-02T05:13:09.458Z,5.60
2018-09-02T05:15:36.790Z,5.20
2018-09-02T05:18:04.329Z,5.10
2018-09-02T05:20:31.683Z,6.33
2018-09-02T05:22:59.050Z,5.50
2018-09-02T05:25:26.355Z,4.97
2018-09-02T05:27:53.718Z,4.77
2018-09-02T05:30:21.350Z,5.50
2018-09-02T05:32:48.745Z,5.10
2018-09-02T05:35:16.389Z,5.20
2018-09-02T05:37:43.693Z,5.10
2018-09-02T05:40:11.073Z,4.70
2018-09-02T05:42:38.424Z,5.83
2018-09-02T05:45:05.795Z,5.00
2018-09-02T05:47:33.152Z,4.50
2018-09-02T05:50:00.547Z,5.10
2018-09-02T05:52:27.867Z,5.70
2018-09-02T05:54:55.237Z,5.33
2018-09-02T05:57:22.648Z,5.20
2018-09-02T05:59:49.953Z,5.03
2018-09-02T06:02:17.466Z,5.93
2018-09-02T06:04:44.862Z,5.37
2018-09-02T06:07:12.208Z,5.23
2018-09-02T06:09:39.581Z,5.23
2018-09-02T06:12:06.890Z,4.70
2018-09-02T06:14:34.255Z,4.80
2018-09-02T06:17:01.614Z,5.20
2018-09-02T06:19:28.965Z,5.43
2018-09-02T06:21:56.234Z,6.57
2018-09-02T06:24:23.680Z,5.73
2018-09-02T06:26:51.067Z,5.00
2018-09-02T06:29:18.521Z,5.60
2018-09-02T06:31:45.854Z,5.00
2018-09-02T06:34:13.183Z,5.50
2018-09-02T06:36:40.526Z,5.63
2018-09-02T06:39:09.750Z,5.37
2018-09-02T06:41:37.074Z,7.10
2018-09-02T06:44:04.590Z,6.77
2018-09-02T06:46:31.938Z,6.17
2018-09-02T06:48:59.391Z,6.00
2018-09-02T06:51:26.694Z,8.27
2018-09-02T06:53:54.000Z,6.77
2018-09-02T06:56:21.301Z,5.50
2018-09-02T06:58:48.687Z,5.10
2018-09-02T07:01:16.019Z,5.53
2018-09-02T07:03:43.434Z,6.20
2018-09-02T07:06:10.787Z,6.30
2018-09-02T07:08:38.215Z,6.13
2018-09-02T07:11:05.769Z,6.03
2018-09-02T07:13:33.170Z,6.30
2018-09-02T07:16:00.481Z,5.40
2018-09-02T07:18:27.844Z,5.43
2018-09-02T07:20:55.207Z,5.17
2018-09-02T07:23:22.566Z,6.10
2018-09-02T07:25:49.929Z,5.73
2018-09-02T07:28:17.345Z,7.30
2018-09-02T07:30:44.686Z,5.70
2018-09-02T07:33:12.418Z,6.00
2018-09-02T07:35:39.750Z,5.23
2018-09-02T07:38:07.162Z,5.00
2018-09-02T07:40:34.548Z,5.60
2018-09-02T07:43:01.979Z,5.37
2018-09-02T07:45:29.401Z,5.50
2018-09-02T07:47:56.895Z,5.27
2018-09-02T07:50:24.239Z,5.30
2018-09-02T07:52:51.578Z,6.00
2018-09-02T07:55:18.918Z,5.73
2018-09-02T07:57:46.334Z,4.53
2018-09-02T08:00:13.686Z,4.00
2018-09-02T08:02:41.204Z,4.73
2018-09-02T08:05:08.807Z,4.17
2018-09-02T08:07:36.413Z,4.13
2018-09-02T08:10:05.115Z,4.00
2018-09-02T08:12:32.552Z,3.90
2018-09-02T08:14:59.730Z,3.70
2018-09-02T08:17:27.177Z,3.70
2018-09-02T08:19:54.647Z,3.60
2018-09-02T08:22:21.899Z,3.43
2018-09-02T08:24:49.257Z,3.60
2018-09-02T08:27:16.671Z,3.57
2018-09-02T08:29:44.039Z,3.83
2018-09-02T08:32:11.354Z,3.37
2018-09-02T08:34:38.676Z,3.47
2018-09-02T08:37:06.353Z,3.80
2018-09-02T08:39:33.747Z,3.40
2018-09-02T08:42:01.071Z,3.97
2018-09-02T08:44:28.566Z,3.13
2018-09-02T08:46:55.851Z,3.00
2018-09-02T08:49:23.199Z,2.90
2018-09-02T08:51:50.593Z,4.00
2018-09-02T08:54:18.008Z,2.97
2018-09-02T08:56:45.348Z,2.80
2018-09-02T08:59:12.805Z,2.60
2018-09-02T09:01:40.194Z,3.30
2018-09-02T09:04:07.546Z,2.77
2018-09-02T09:06:34.915Z,3.00
2018-09-02T09:09:02.462Z,2.90
2018-09-02T09:11:29.716Z,2.80
2018-09-02T09:13:57.048Z,3.13
2018-09-02T09:16:24.623Z,3.00
2018-09-02T09:18:51.961Z,3.00
2018-09-02T09:21:19.327Z,2.40
2018-09-02T09:23:46.687Z,3.07
2018-09-02T09:26:14.097Z,2.70
2018-09-02T09:28:41.449Z,2.70
2018-09-02T09:31:09.424Z,3.27
2018-09-02T09:33:36.767Z,2.63
2018-09-02T09:36:04.407Z,2.60
2018-09-02T09:38:32.043Z,2.90
2018-09-02T09:40:59.380Z,2.40
2018-09-02T09:43:26.763Z,2.63
2018-09-02T09:45:54.202Z,2.20
2018-09-02T09:48:21.501Z,2.10
2018-09-02T09:50:48.903Z,2.70
2018-09-02T09:53:16.180Z,2.30
2018-09-02T09:55:43.560Z,2.33
2018-09-02T09:58:10.905Z,2.27
2018-09-02T10:00:51.271Z,3.00
2018-09-02T10:03:19.198Z,2.57
2018-09-02T10:05:46.521Z,2.20
2018-09-02T10:08:13.841Z,2.50
2018-09-02T10:10:41.526Z,2.40
2018-09-02T10:13:08.846Z,2.37
2018-09-02T10:15:36.832Z,2.20
2018-09-02T10:18:04.628Z,2.23
2018-09-02T10:20:32.203Z,2.30
2018-09-02T10:23:00.103Z,1.80
2018-09-02T10:25:27.433Z,2.20
2018-09-02T10:27:54.843Z,1.70
2018-09-02T10:30:22.255Z,2.00
2018-09-02T10:32:49.668Z,2.47
2018-09-02T10:35:17.357Z,2.37
2018-09-02T10:37:44.766Z,2.07
2018-09-02T10:40:12.052Z,2.20
2018-09-02T10:42:39.507Z,2.10
2018-09-02T10:45:06.813Z,2.00
2018-09-02T10:47:34.345Z,2.43
2018-09-02T10:50:01.779Z,2.33
2018-09-02T10:52:29.193Z,2.07
2018-09-02T10:54:56.514Z,2.30
2018-09-02T10:57:23.881Z,2.20
2018-09-02T10:59:51.230Z,1.90
2018-09-02T11:02:18.622Z,2.03
2018-09-02T11:04:45.878Z,2.17
2018-09-02T11:07:13.196Z,1.80
2018-09-02T11:09:40.677Z,2.23
2018-09-02T11:12:08.125Z,2.63
2018-09-02T11:14:35.458Z,2.30
2018-09-02T11:17:03.197Z,1.73
2018-09-02T11:19:30.498Z,2.03
2018-09-02T11:21:57.941Z,1.77
2018-09-02T11:24:25.374Z,2.20
2018-09-02T11:26:52.805Z,1.80
2018-09-02T11:29:20.477Z,1.97
2018-09-02T11:31:47.930Z,1.93
2018-09-02T11:34:15.295Z,2.80
2018-09-02T11:36:42.761Z,2.07
2018-09-02T11:39:10.422Z,2.17
2018-09-02T11:41:37.794Z,2.30
2018-09-02T11:44:05.631Z,2.30
2018-09-02T11:46:33.005Z,2.10
2018-09-02T11:49:00.362Z,2.70
2018-09-02T11:51:27.656Z,2.23
2018-09-02T11:53:54.957Z,2.10
2018-09-02T11:56:22.245Z,1.77
2018-09-02T11:58:49.651Z,2.10
2018-09-02T12:01:16.993Z,2.60
2018-09-02T12:03:44.466Z,1.70
2018-09-02T12:06:11.779Z,2.50
2018-09-02T12:08:39.070Z,2.30
2018-09-02T12:11:06.429Z,2.03
2018-09-02T12:13:33.836Z,2.40
2018-09-02T12:16:01.254Z,2.00
2018-09-02T12:18:28.852Z,2.37
2018-09-02T12:20:56.115Z,1.80
2018-09-02T12:23:23.378Z,2.23
2018-09-02T12:25:50.800Z,2.57
2018-09-02T12:28:18.241Z,2.27
2018-09-02T12:30:45.565Z,2.63
2018-09-02T12:33:12.998Z,2.40
2018-09-02T12:35:40.476Z,2.90
2018-09-02T12:38:07.806Z,2.50
2018-09-02T12:40:35.105Z,1.90
2018-09-02T12:43:02.505Z,2.60
2018-09-02T12:45:29.957Z,2.13
2018-09-02T12:47:57.429Z,2.60
2018-09-02T12:50:24.703Z,2.40
2018-09-02T12:52:52.082Z,2.70
2018-09-02T12:55:19.581Z,2.27
2018-09-02T12:57:46.833Z,2.57
2018-09-02T13:00:14.266Z,2.33
2018-09-02T13:02:41.619Z,2.53
2018-09-02T13:05:09.119Z,1.93
2018-09-02T13:07:36.452Z,2.07
2018-09-02T13:10:04.360Z,2.53
2018-09-02T13:12:31.696Z,2.07
2018-09-02T13:14:59.004Z,2.50
2018-09-02T13:17:26.477Z,2.40
2018-09-02T13:19:53.787Z,2.27
2018-09-02T13:22:21.256Z,2.27
2018-09-02T13:24:48.588Z,2.17
2018-09-02T13:27:15.927Z,2.70
2018-09-02T13:29:43.382Z,2.10
2018-09-02T13:32:10.722Z,1.90
2018-09-02T13:34:38.053Z,1.90
2018-09-02T13:37:05.345Z,1.73
2018-09-02T13:39:32.616Z,2.03
2018-09-02T13:42:00.005Z,2.10
2018-09-02T13:44:27.343Z,2.07
2018-09-02T13:46:54.757Z,2.60
2018-09-02T13:49:22.163Z,2.40
2018-09-02T13:51:49.705Z,2.07
2018-09-02T13:54:17.055Z,2.20
2018-09-02T13:56:44.409Z,2.57
2018-09-02T13:59:11.829Z,2.70
2018-09-02T14:01:39.194Z,2.20
2018-09-02T14:04:06.617Z,1.97
2018-09-02T14:06:33.931Z,2.00
2018-09-02T14:09:01.214Z,2.20
2018-09-02T14:11:28.621Z,2.20
2018-09-02T14:13:55.929Z,2.47
2018-09-02T14:16:23.394Z,2.20
2018-09-02T14:18:50.748Z,2.73
2018-09-02T14:21:18.164Z,2.03
2018-09-02T14:23:45.533Z,1.87
2018-09-02T14:26:12.853Z,1.70
2018-09-02T14:28:40.247Z,1.70
2018-09-02T14:31:07.669Z,2.40
2018-09-02T14:33:35.001Z,1.90
2018-09-02T14:36:02.338Z,2.00
2018-09-02T14:38:29.907Z,2.03
2018-09-02T14:40:57.306Z,2.03
2018-09-02T14:43:24.621Z,2.20
2018-09-02T14:45:52.362Z,2.47
2018-09-02T14:48:19.770Z,2.40
2018-09-02T14:50:47.319Z,2.40
2018-09-02T14:53:14.669Z,2.60
2018-09-02T14:55:42.054Z,2.70
2018-09-02T14:58:09.428Z,2.20
2018-09-02T15:00:37.374Z,2.50
2018-09-02T15:03:04.888Z,2.07
2018-09-02T15:05:32.418Z,1.83
2018-09-02T15:07:59.745Z,2.30
2018-09-02T15:10:27.093Z,2.50
2018-09-02T15:12:54.551Z,3.20
2018-09-02T15:15:21.855Z,2.53
2018-09-02T15:17:49.179Z,2.13
2018-09-02T15:20:16.691Z,2.40
2018-09-02T15:22:44.011Z,2.30
2018-09-02T15:25:11.331Z,2.13
2018-09-02T15:27:38.706Z,2.40
2018-09-02T15:30:06.218Z,2.30
2018-09-02T15:32:33.614Z,2.17
2018-09-02T15:35:00.945Z,2.70
2018-09-02T15:37:28.236Z,2.63
2018-09-02T15:39:55.590Z,2.10
2018-09-02T15:42:22.981Z,2.20
2018-09-02T15:44:50.354Z,3.03
2018-09-02T15:47:17.733Z,2.53
2018-09-02T15:49:45.140Z,1.90
2018-09-02T15:52:12.474Z,2.67
2018-09-02T15:54:39.826Z,2.97
2018-09-02T15:57:07.228Z,2.20
2018-09-02T15:59:34.663Z,2.33
2018-09-02T16:02:02.143Z,2.20
2018-09-02T16:04:29.494Z,2.60
2018-09-02T16:06:56.830Z,2.40
2018-09-02T16:09:24.422Z,2.40
2018-09-02T16:11:51.865Z,2.20
2018-09-02T16:14:19.246Z,2.33
2018-09-02T16:16:46.561Z,2.13
2018-09-02T16:19:13.881Z,2.10
2018-09-02T16:21:41.163Z,2.30
2018-09-02T16:24:08.482Z,2.40
2018-09-02T16:26:35.851Z,2.37
2018-09-02T16:29:03.308Z,2.13
2018-09-02T16:31:30.746Z,2.20
2018-09-02T16:33:58.243Z,2.77
2018-09-02T16:36:25.599Z,2.03
2018-09-02T16:38:52.967Z,2.00
2018-09-02T16:41:20.399Z,2.10
2018-09-02T16:43:47.757Z,2.47
2018-09-02T16:46:15.137Z,1.93
2018-09-02T16:48:42.581Z,2.40
2018-09-02T16:51:09.878Z,2.03
2018-09-02T16:53:37.285Z,2.37
2018-09-02T16:56:05.307Z,2.67
2018-09-02T16:58:32.730Z,2.30
2018-09-02T17:01:00.450Z,1.70
2018-09-02T17:03:30.412Z,2.17
2018-09-02T17:05:57.869Z,1.73
2018-09-02T17:08:25.209Z,2.27
2018-09-02T17:10:52.526Z,2.13
2018-09-02T17:13:19.943Z,2.03
2018-09-02T17:15:47.392Z,2.27
2018-09-02T17:18:14.756Z,2.43
2018-09-02T17:20:44.942Z,2.37
2018-09-02T17:23:13.323Z,2.03
2018-09-02T17:25:41.697Z,2.37
2018-09-02T17:28:09.031Z,2.10
2018-09-02T17:30:36.934Z,2.20
2018-09-02T17:33:04.631Z,2.07
2018-09-02T17:35:31.970Z,2.37
2018-09-02T17:37:59.275Z,2.40
2018-09-02T17:40:26.697Z,1.97
2018-09-02T17:42:54.282Z,2.20
2018-09-02T17:45:21.585Z,2.43
2018-09-02T17:47:48.937Z,2.17
2018-09-02T17:50:16.298Z,2.20
2018-09-02T17:52:43.559Z,2.60
2018-09-02T17:55:10.863Z,2.40
2018-09-02T17:57:38.451Z,1.83
2018-09-02T18:00:05.913Z,2.30
2018-09-02T18:02:33.318Z,2.30
2018-09-02T18:05:00.739Z,2.53
2018-09-02T18:07:28.293Z,2.90
2018-09-02T18:09:55.705Z,2.10
2018-09-02T18:12:23.026Z,2.27
2018-09-02T18:14:50.411Z,2.23
2018-09-02T18:17:17.720Z,2.20
2018-09-02T18:19:45.033Z,2.30
2018-09-02T18:22:12.415Z,2.10
2018-09-02T18:24:39.726Z,2.00
2018-09-02T18:27:07.435Z,2.20
2018-09-02T18:29:34.753Z,2.30
2018-09-02T18:32:02.295Z,2.50
2018-09-02T18:34:29.909Z,2.30
2018-09-02T18:36:57.245Z,2.30
2018-09-02T18:39:24.747Z,1.97
2018-09-02T18:41:51.933Z,2.50
2018-09-02T18:44:19.255Z,2.03
2018-09-02T18:46:46.736Z,2.20
2018-09-02T18:49:14.105Z,2.33
2018-09-02T18:51:41.623Z,2.30
2018-09-02T18:54:08.920Z,2.03
2018-09-02T18:56:36.274Z,2.37
2018-09-02T18:59:04.954Z,2.40
2018-09-02T19:01:32.469Z,2.20
2018-09-02T19:03:59.797Z,2.17
2018-09-02T19:06:27.070Z,2.20
2018-09-02T19:08:54.378Z,1.87
2018-09-02T19:11:21.834Z,1.87
2018-09-02T19:13:49.190Z,2.07
2018-09-02T19:16:16.633Z,1.53
2018-09-02T19:18:43.987Z,2.23
2018-09-02T19:21:11.345Z,2.30
2018-09-02T19:23:38.745Z,1.90
2018-09-02T19:26:06.105Z,2.40
2018-09-02T19:28:33.457Z,2.43
2018-09-02T19:31:00.797Z,2.13
2018-09-02T19:33:28.072Z,2.17
2018-09-02T19:35:55.465Z,1.80
2018-09-02T19:38:22.963Z,2.27
2018-09-02T19:40:50.371Z,2.20
2018-09-02T19:43:17.667Z,2.47
2018-09-02T19:45:44.982Z,1.93
2018-09-02T19:48:12.379Z,2.17
2018-09-02T19:50:39.713Z,2.13
2018-09-02T19:53:07.109Z,2.07
2018-09-02T19:55:34.534Z,1.80
2018-09-02T19:58:02.008Z,2.10
2018-09-02T20:00:29.373Z,1.63
2018-09-02T20:02:56.718Z,1.70
2018-09-02T20:05:24.455Z,2.27
2018-09-02T20:07:51.814Z,1.93
2018-09-02T20:10:19.138Z,2.10
2018-09-02T20:12:46.534Z,2.00
2018-09-02T20:15:13.805Z,1.73
2018-09-02T20:17:41.232Z,2.07
2018-09-02T20:20:08.722Z,2.00
2018-09-02T20:22:36.013Z,2.10
2018-09-02T20:25:03.533Z,1.63
2018-09-02T20:27:30.887Z,2.13
2018-09-02T20:29:58.354Z,2.20
2018-09-02T20:32:25.705Z,1.87
2018-09-02T20:34:52.970Z,1.87
2018-09-02T20:37:20.311Z,2.30
2018-09-02T20:39:47.722Z,2.60
2018-09-02T20:42:15.019Z,1.87
2018-09-02T20:44:42.382Z,1.97
2018-09-02T20:47:09.775Z,1.80
2018-09-02T20:49:37.185Z,2.27
2018-09-02T20:52:04.826Z,2.30
2018-09-02T20:54:32.266Z,2.50
2018-09-02T20:56:59.600Z,2.03
2018-09-02T20:59:26.921Z,2.40
2018-09-02T21:01:54.294Z,1.80
2018-09-02T21:04:21.733Z,2.10
2018-09-02T21:06:49.005Z,2.33
2018-09-02T21:09:17.139Z,1.90
2018-09-02T21:11:44.897Z,2.17
2018-09-02T21:14:12.225Z,2.20
2018-09-02T21:16:39.755Z,2.50
2018-09-02T21:19:07.154Z,2.20
2018-09-02T21:21:35.395Z,2.30
2018-09-02T21:24:02.806Z,2.20
2018-09-02T21:26:30.436Z,1.80
2018-09-02T21:28:57.812Z,2.13
2018-09-02T21:31:25.159Z,2.77
2018-09-02T21:33:52.486Z,2.10
2018-09-02T21:36:19.801Z,2.23
2018-09-02T21:38:47.114Z,1.90
2018-09-02T21:41:14.562Z,2.87
2018-09-02T21:43:41.918Z,2.40
2018-09-02T21:46:09.270Z,2.23
2018-09-02T21:48:36.613Z,1.90
2018-09-02T21:51:04.101Z,2.57
2018-09-02T21:53:31.690Z,2.30
2018-09-02T21:55:59.102Z,2.10
2018-09-02T21:58:26.534Z,2.60
2018-09-02T22:00:54.031Z,2.17
2018-09-02T22:03:21.386Z,2.20
2018-09-02T22:05:48.658Z,2.00
2018-09-02T22:08:16.017Z,2.00
2018-09-02T22:10:43.402Z,2.27
2018-09-02T22:13:10.837Z,2.33
2018-09-02T22:15:38.473Z,2.50
2018-09-02T22:18:05.982Z,2.63
2018-09-02T22:20:33.354Z,1.80
2018-09-02T22:23:00.744Z,2.13
2018-09-02T22:25:28.158Z,2.67
2018-09-02T22:27:55.606Z,2.23
2018-09-02T22:30:23.006Z,2.43
2018-09-02T22:32:50.310Z,2.10
2018-09-02T22:35:17.644Z,2.10
2018-09-02T22:37:44.993Z,2.13
2018-09-02T22:40:12.341Z,2.00
2018-09-02T22:42:39.641Z,2.20
2018-09-02T22:45:07.005Z,2.20
2018-09-02T22:47:34.429Z,2.50
2018-09-02T22:50:01.932Z,2.10
2018-09-02T22:52:29.254Z,1.80
2018-09-02T22:54:56.531Z,2.40
2018-09-02T22:57:23.908Z,2.30
2018-09-02T22:59:51.238Z,2.40
2018-09-02T23:02:18.695Z,3.00
2018-09-02T23:04:46.039Z,2.27
2018-09-02T23:07:13.357Z,2.30
2018-09-02T23:09:40.617Z,2.00
2018-09-02T23:12:08.006Z,2.33
2018-09-02T23:14:35.443Z,2.50
2018-09-02T23:17:02.762Z,2.30
2018-09-02T23:19:30.254Z,2.87
2018-09-02T23:21:57.493Z,2.53
2018-09-02T23:24:24.832Z,2.67
2018-09-02T23:26:52.163Z,2.30
2018-09-02T23:29:19.465Z,2.40
2018-09-02T23:31:46.839Z,2.50
2018-09-02T23:34:14.198Z,3.00
2018-09-02T23:36:41.569Z,2.93
2018-09-02T23:39:14.945Z,2.50
2018-09-02T23:41:42.295Z,2.60
2018-09-02T23:44:09.682Z,2.30
2018-09-02T23:46:36.981Z,2.77
2018-09-02T23:49:04.326Z,2.50
2018-09-02T23:51:31.690Z,3.23
2018-09-02T23:53:59.095Z,2.60
2018-09-02T23:56:26.478Z,2.63
2018-09-02T23:58:53.841Z,2.23
